Time;durP1;ratioP1;P1;durP2;ratioP2;P2;SDS_P1;SDS_P2;PMS_P1;PMS_P2;Temp;Humidity;BMP_temperature;BMP_pressure;BME280_temperature;BME280_humidity;BME280_pressure;Samples;Min_cycle;Max_cycle;Signal;HPM_P1;HPM_P2
2023/01/17 00:02:18;;;;;;;8.70;6.50;;;3.10;99.90;;;;;;4955792;28;20059;-66
2023/01/17 00:10:24;;;;;;;8.98;5.70;;;3.10;99.90;;;;;;4955979;28;20073;-64
2023/01/17 00:12:53;;;;;;;10.55;6.05;;;3.10;99.90;;;;;;4958717;28;20059;-64
2023/01/17 00:15:22;;;;;;;9.63;5.63;;;3.00;99.90;;;;;;4955265;28;20065;-62
2023/01/17 00:17:49;;;;;;;6.75;5.32;;;3.00;99.90;;;;;;4952337;28;20141;-63
2023/01/17 00:26:02;;;;;;;13.05;7.15;;;3.00;99.90;;;;;;4951754;28;20332;-67
2023/01/17 01:35:52;;;;;;;14.35;8.00;;;3.00;99.90;;;;;;4954569;28;20047;-72
2023/01/17 01:38:21;;;;;;;14.20;6.30;;;3.00;99.90;;;;;;4952761;28;20149;-67
2023/01/17 01:40:51;;;;;;;11.57;7.50;;;3.00;99.90;;;;;;4951316;28;20039;-65
2023/01/17 01:43:37;;;;;;;12.18;6.57;;;3.10;99.90;;;;;;4950484;28;20429;-68
2023/01/17 01:46:05;;;;;;;12.25;6.43;;;3.10;99.90;;;;;;4949481;28;20067;-65
2023/01/17 01:48:40;;;;;;;11.55;6.80;;;3.10;99.90;;;;;;4953445;28;20623;-65
2023/01/17 01:51:14;;;;;;;9.60;6.63;;;3.20;99.90;;;;;;4953705;28;20208;-65
2023/01/17 01:53:46;;;;;;;13.38;6.65;;;3.20;99.90;;;;;;4947159;28;20133;-67
2023/01/17 01:56:14;;;;;;;19.10;8.25;;;3.20;99.90;;;;;;4954993;28;20057;-67
2023/01/17 01:58:46;;;;;;;15.10;7.25;;;3.20;99.90;;;;;;4955862;28;20055;-69
2023/01/17 02:01:14;;;;;;;10.75;8.00;;;3.20;99.90;;;;;;4955297;28;20111;-69
2023/01/17 02:03:42;;;;;;;10.10;6.60;;;3.30;99.90;;;;;;4951659;28;20557;-65
2023/01/17 02:06:32;;;;;;;12.23;8.38;;;3.30;99.90;;;;;;4953261;28;20044;-65
2023/01/17 02:09:04;;;;;;;12.60;8.18;;;3.30;99.90;;;;;;4950282;28;20051;-68
2023/01/17 02:11:33;;;;;;;12.73;6.97;;;3.30;99.90;;;;;;4947111;28;20078;-67
2023/01/17 02:14:00;;;;;;;10.27;7.07;;;3.30;99.90;;;;;;4945521;28;20047;-65
2023/01/17 02:16:45;;;;;;;10.05;7.07;;;3.30;99.90;;;;;;4951618;28;20046;-66
2023/01/17 02:19:50;;;;;;;8.98;6.97;;;3.30;99.90;;;;;;4951098;28;20157;-64
2023/01/17 02:22:32;;;;;;;12.75;9.10;;;3.30;99.90;;;;;;4953859;28;20043;-68
2023/01/17 02:25:20;;;;;;;13.75;8.05;;;3.30;99.90;;;;;;4944941;28;20046;-64
2023/01/17 02:28:03;;;;;;;19.45;7.15;;;3.20;99.90;;;;;;4949499;28;20121;-67
2023/01/17 02:30:34;;;;;;;10.77;7.25;;;3.20;99.90;;;;;;4949046;28;20146;-68
2023/01/17 02:33:30;;;;;;;12.70;7.38;;;3.20;99.90;;;;;;4951103;28;20128;-64
2023/01/17 02:36:17;;;;;;;11.00;8.35;;;3.20;99.90;;;;;;4949592;28;20164;-68
2023/01/17 02:38:57;;;;;;;12.05;8.30;;;3.20;99.90;;;;;;4949967;28;20046;-65
2023/01/17 02:41:33;;;;;;;;;;;3.20;99.90;;;;;;4943372;28;20054;-63
2023/01/17 02:44:01;;;;;;;10.90;8.15;;;3.20;99.90;;;;;;4951984;28;19926;-68
2023/01/17 02:46:28;;;;;;;15.30;9.57;;;3.20;99.90;;;;;;4953931;28;20058;-69
2023/01/17 02:48:56;;;;;;;9.77;8.50;;;3.20;99.90;;;;;;4952608;28;20058;-63
2023/01/17 02:51:42;;;;;;;15.10;9.45;;;3.20;99.90;;;;;;4950368;28;20062;-64
2023/01/17 02:54:22;;;;;;;13.10;10.13;;;3.20;99.90;;;;;;4943604;28;20199;-65
2023/01/17 02:57:00;;;;;;;;;;;3.10;99.90;;;;;;4946937;28;20138;-68
2023/01/17 02:59:57;;;;;;;11.38;9.15;;;3.10;99.90;;;;;;4949752;28;20053;-67
2023/01/17 03:02:37;;;;;;;12.05;9.02;;;3.10;99.90;;;;;;4949883;28;20082;-63
2023/01/17 03:05:14;;;;;;;14.73;9.18;;;3.20;99.90;;;;;;4951563;28;20116;-64
2023/01/17 03:07:43;;;;;;;14.00;10.98;;;3.20;99.90;;;;;;4949371;28;20047;-63
2023/01/17 03:10:13;;;;;;;11.20;8.90;;;3.20;99.90;;;;;;4951506;28;20074;-66
2023/01/17 03:12:40;;;;;;;13.98;9.23;;;3.20;99.90;;;;;;4952775;28;20086;-66
2023/01/17 03:15:11;;;;;;;13.30;8.50;;;3.20;99.90;;;;;;4959282;28;20066;-65
2023/01/17 03:17:44;;;;;;;14.98;9.65;;;3.20;99.90;;;;;;4948232;28;20047;-63
2023/01/17 03:20:11;;;;;;;16.02;12.18;;;3.20;99.90;;;;;;4955650;28;20047;-64
2023/01/17 03:22:38;;;;;;;12.43;8.82;;;3.20;99.90;;;;;;4956626;28;20057;-64
2023/01/17 03:25:05;;;;;;;13.95;9.85;;;3.20;99.90;;;;;;4950513;28;20062;-63
2023/01/17 03:27:32;;;;;;;16.30;11.63;;;3.20;99.90;;;;;;4950379;28;20146;-71
2023/01/17 03:30:00;;;;;;;18.40;11.40;;;3.30;99.90;;;;;;4940849;28;21288;-65
2023/01/17 03:32:27;;;;;;;9.90;8.43;;;3.30;99.90;;;;;;4950611;28;20090;-66
2023/01/17 03:34:54;;;;;;;13.90;12.05;;;3.20;99.90;;;;;;4948166;28;20498;-65
2023/01/17 03:37:21;;;;;;;14.15;11.25;;;3.20;99.90;;;;;;4953293;28;20142;-65
2023/01/17 03:39:48;;;;;;;17.25;11.23;;;3.20;99.90;;;;;;4950883;28;20404;-66
2023/01/17 03:42:15;;;;;;;14.55;10.88;;;3.20;99.90;;;;;;4950092;28;20134;-68
2023/01/17 03:44:42;;;;;;;19.33;11.52;;;3.20;99.90;;;;;;4943447;28;20418;-63
2023/01/17 03:47:10;;;;;;;19.55;13.52;;;3.20;99.90;;;;;;4950073;28;20055;-65
2023/01/17 03:49:38;;;;;;;19.90;13.18;;;3.20;99.90;;;;;;4951962;28;20139;-67
2023/01/17 03:52:06;;;;;;;15.77;12.55;;;3.20;99.90;;;;;;4951433;28;20138;-63
2023/01/17 03:54:33;;;;;;;16.20;12.40;;;3.20;99.90;;;;;;4949194;28;20074;-66
2023/01/17 03:56:59;;;;;;;17.27;12.77;;;3.10;99.90;;;;;;4950809;28;20050;-67
2023/01/17 03:59:26;;;;;;;16.15;13.25;;;3.10;99.90;;;;;;4951151;28;20177;-73
2023/01/17 04:01:53;;;;;;;22.08;13.80;;;3.10;99.90;;;;;;4950270;28;20043;-66
2023/01/17 04:04:20;;;;;;;22.35;13.60;;;3.10;99.90;;;;;;4953268;28;20150;-66
2023/01/17 04:06:47;;;;;;;20.67;14.57;;;3.00;99.90;;;;;;4953733;28;20082;-64
2023/01/17 04:09:14;;;;;;;23.95;14.48;;;3.00;99.90;;;;;;4946246;28;20050;-68
2023/01/17 04:11:41;;;;;;;21.60;14.38;;;3.00;99.90;;;;;;4949442;28;20441;-64
2023/01/17 04:14:08;;;;;;;20.20;14.68;;;3.00;99.90;;;;;;4951579;28;20046;-66
2023/01/17 04:16:36;;;;;;;21.05;14.25;;;2.90;99.90;;;;;;4945743;28;20071;-65
2023/01/17 04:19:03;;;;;;;19.25;15.50;;;2.90;99.90;;;;;;4951421;28;20050;-64
2023/01/17 04:21:30;;;;;;;20.80;14.55;;;2.90;99.90;;;;;;4949016;28;20051;-64
2023/01/17 04:23:56;;;;;;;22.05;15.70;;;2.90;99.90;;;;;;4948183;28;20399;-66
2023/01/17 04:26:23;;;;;;;21.67;14.55;;;2.80;99.90;;;;;;4953797;28;20055;-67
2023/01/17 04:28:50;;;;;;;20.38;14.68;;;2.80;99.90;;;;;;4949990;28;20047;-65
2023/01/17 04:31:17;;;;;;;21.08;15.07;;;2.80;99.90;;;;;;4953815;28;20078;-64
2023/01/17 04:33:44;;;;;;;17.95;13.02;;;2.80;99.90;;;;;;4943644;28;20535;-67
2023/01/17 04:36:11;;;;;;;21.35;15.40;;;2.80;99.90;;;;;;4956874;28;20053;-65
2023/01/17 04:38:37;;;;;;;21.30;13.48;;;2.80;99.90;;;;;;4962714;28;20066;-66
2023/01/17 04:41:04;;;;;;;18.42;15.80;;;2.80;99.90;;;;;;4950336;28;20081;-67
2023/01/17 04:43:31;;;;;;;23.73;14.85;;;2.80;99.90;;;;;;4954868;28;20057;-63
2023/01/17 04:45:58;;;;;;;20.63;15.07;;;2.70;99.90;;;;;;4953936;28;20118;-70
2023/01/17 04:48:26;;;;;;;18.23;14.38;;;2.70;99.90;;;;;;4951417;28;20129;-65
2023/01/17 04:51:03;;;;;;;19.08;13.70;;;2.70;99.90;;;;;;4955813;28;20055;-64
2023/01/17 04:53:31;;;;;;;19.27;13.70;;;2.70;99.90;;;;;;4948780;28;20047;-64
2023/01/17 04:55:58;;;;;;;17.25;13.60;;;2.70;99.90;;;;;;4948807;28;20682;-67
2023/01/17 04:58:25;;;;;;;19.23;12.98;;;2.60;99.90;;;;;;4955463;28;20471;-65
2023/01/17 05:00:53;;;;;;;19.83;13.70;;;2.60;99.90;;;;;;4955196;28;20051;-66
2023/01/17 05:03:22;;;;;;;13.40;11.20;;;2.60;99.90;;;;;;4953041;28;20144;-72
2023/01/17 05:05:49;;;;;;;18.00;12.07;;;2.60;99.90;;;;;;4950396;28;20114;-66
2023/01/17 05:08:16;;;;;;;13.50;10.02;;;2.60;99.90;;;;;;4956112;28;20769;-65
2023/01/17 05:10:45;;;;;;;15.32;10.13;;;2.60;99.90;;;;;;4954670;28;20409;-66
2023/01/17 05:13:13;;;;;;;24.05;11.07;;;2.60;99.90;;;;;;4956920;28;20043;-66
2023/01/17 05:15:40;;;;;;;17.45;9.73;;;2.60;99.90;;;;;;4952332;28;20071;-70
2023/01/17 05:18:14;;;;;;;11.85;9.70;;;2.60;99.90;;;;;;4954458;28;20035;-65
2023/01/17 05:20:41;;;;;;;14.05;9.00;;;2.60;99.90;;;;;;4945870;28;20086;-69
2023/01/17 05:23:09;;;;;;;16.92;9.98;;;2.60;99.90;;;;;;4951382;28;20047;-66
2023/01/17 05:25:36;;;;;;;14.82;10.43;;;2.60;99.90;;;;;;4949964;28;20058;-66
2023/01/17 05:28:03;;;;;;;13.18;10.20;;;2.50;99.90;;;;;;4950217;28;20047;-66
2023/01/17 05:30:32;;;;;;;14.80;11.00;;;2.50;99.90;;;;;;4952717;28;20055;-67
2023/01/17 05:32:58;;;;;;;20.42;10.68;;;2.50;99.90;;;;;;4949913;28;20062;-71
2023/01/17 05:35:28;;;;;;;16.75;11.00;;;2.60;99.90;;;;;;4948481;28;20146;-65
2023/01/17 05:37:55;;;;;;;21.52;10.77;;;2.60;99.90;;;;;;4948157;28;20055;-65
2023/01/17 05:40:25;;;;;;;16.77;10.82;;;2.50;99.90;;;;;;4951993;28;20085;-66
2023/01/17 05:42:55;;;;;;;16.65;11.55;;;2.50;99.90;;;;;;4952137;28;20055;-64
2023/01/17 05:45:24;;;;;;;12.73;10.03;;;2.50;99.90;;;;;;4954997;28;20051;-64
2023/01/17 05:47:53;;;;;;;19.45;10.57;;;2.60;99.90;;;;;;4946719;28;20055;-67
2023/01/17 05:50:22;;;;;;;21.30;11.30;;;2.50;99.90;;;;;;4951663;28;20446;-68
2023/01/17 05:52:56;;;;;;;16.23;11.40;;;2.50;99.90;;;;;;4947642;28;20517;-68
2023/01/17 05:55:24;;;;;;;15.57;10.68;;;2.50;99.90;;;;;;4950989;28;20050;-66
2023/01/17 05:57:51;;;;;;;14.52;11.15;;;2.50;99.90;;;;;;4945109;28;20043;-68
2023/01/17 06:00:19;;;;;;;18.92;11.98;;;2.50;99.90;;;;;;4955130;28;20047;-67
2023/01/17 06:02:47;;;;;;;15.18;10.65;;;2.50;99.90;;;;;;4945496;28;20051;-67
2023/01/17 06:05:14;;;;;;;13.20;9.88;;;2.50;99.90;;;;;;4951061;28;20078;-71
2023/01/17 06:07:43;;;;;;;15.60;11.15;;;2.50;99.90;;;;;;4944974;28;20411;-65
2023/01/17 06:10:13;;;;;;;17.90;11.00;;;2.50;99.90;;;;;;4950714;28;20130;-65
2023/01/17 06:12:41;;;;;;;17.43;13.83;;;2.50;99.90;;;;;;4949655;28;20065;-69
2023/01/17 06:15:09;;;;;;;16.73;11.77;;;2.50;99.90;;;;;;4949793;28;20718;-65
2023/01/17 06:17:36;;;;;;;23.80;12.02;;;2.50;99.90;;;;;;4947522;28;20079;-67
2023/01/17 06:20:05;;;;;;;27.77;11.93;;;2.50;99.90;;;;;;4947919;28;20106;-65
2023/01/17 06:22:32;;;;;;;21.27;14.25;;;2.50;99.90;;;;;;4948950;28;20149;-67
2023/01/17 06:24:59;;;;;;;20.38;12.77;;;2.50;99.90;;;;;;4945573;28;20051;-64
2023/01/17 06:27:26;;;;;;;21.60;14.25;;;2.50;99.90;;;;;;4950872;28;20054;-67
2023/01/17 06:29:53;;;;;;;21.00;11.48;;;2.50;99.90;;;;;;4947508;28;20069;-66
2023/01/17 06:32:20;;;;;;;24.67;12.23;;;2.50;99.90;;;;;;4951193;28;21005;-65
2023/01/17 06:34:47;;;;;;;25.25;12.77;;;2.50;99.90;;;;;;4947507;28;20047;-67
2023/01/17 06:37:13;;;;;;;26.67;14.07;;;2.50;99.90;;;;;;4950102;28;20158;-67
2023/01/17 06:39:40;;;;;;;28.55;13.52;;;2.50;99.90;;;;;;4945212;28;20069;-67
2023/01/17 06:42:07;;;;;;;24.23;11.98;;;2.50;99.90;;;;;;4949100;28;20254;-69
2023/01/17 06:44:34;;;;;;;26.80;10.70;;;2.50;99.90;;;;;;4952366;28;20043;-65
2023/01/17 06:47:01;;;;;;;23.90;10.10;;;2.50;99.90;;;;;;4949615;28;20145;-65
2023/01/17 06:49:28;;;;;;;20.10;9.52;;;2.50;99.90;;;;;;4949553;28;20393;-68
2023/01/17 06:51:55;;;;;;;22.50;9.68;;;2.50;99.90;;;;;;4948803;28;20040;-65
2023/01/17 06:54:22;;;;;;;17.10;8.32;;;2.50;99.90;;;;;;4949123;28;20039;-67
2023/01/17 06:56:48;;;;;;;14.35;7.80;;;2.50;99.90;;;;;;4946814;28;20114;-68
2023/01/17 06:59:15;;;;;;;19.38;8.25;;;2.50;99.90;;;;;;4950405;28;20066;-67
2023/01/17 07:01:42;;;;;;;16.33;8.25;;;2.60;99.90;;;;;;4951157;28;20472;-68
2023/01/17 07:04:09;;;;;;;11.43;6.63;;;2.60;99.90;;;;;;4948563;28;20125;-71
2023/01/17 07:06:36;;;;;;;14.65;7.97;;;2.60;99.90;;;;;;4953811;28;20113;-64
2023/01/17 07:09:03;;;;;;;14.65;7.55;;;2.60;99.90;;;;;;4949055;28;20125;-69
2023/01/17 07:11:31;;;;;;;17.85;6.75;;;2.60;99.90;;;;;;4947716;28;20154;-66
2023/01/17 07:13:57;;;;;;;10.32;6.57;;;2.60;99.90;;;;;;4950518;28;20043;-67
2023/01/17 07:16:24;;;;;;;13.52;7.53;;;2.60;99.90;;;;;;4951454;28;20047;-67
2023/01/17 07:18:53;;;;;;;11.73;7.57;;;2.60;99.90;;;;;;4950622;28;20054;-65
2023/01/17 07:21:20;;;;;;;12.38;7.25;;;2.60;99.90;;;;;;4954983;28;20051;-65
2023/01/17 07:23:47;;;;;;;11.85;7.55;;;2.60;99.90;;;;;;4950703;28;20142;-67
2023/01/17 07:26:16;;;;;;;13.82;9.50;;;2.60;99.90;;;;;;4953809;28;20153;-68
2023/01/17 07:28:43;;;;;;;13.15;7.85;;;2.70;99.90;;;;;;4946488;28;20059;-68
2023/01/17 07:31:09;;;;;;;9.30;7.07;;;2.60;99.90;;;;;;4949418;28;20046;-67
2023/01/17 07:33:36;;;;;;;8.98;6.85;;;2.60;99.90;;;;;;4945597;28;20055;-66
2023/01/17 07:36:06;;;;;;;14.05;7.95;;;2.60;99.90;;;;;;4950580;28;20141;-65
2023/01/17 07:38:33;;;;;;;14.48;9.20;;;2.70;99.90;;;;;;4949552;28;20082;-66
2023/01/17 07:41:00;;;;;;;9.98;7.95;;;2.70;99.90;;;;;;4951708;28;20043;-70
2023/01/17 07:43:27;;;;;;;12.43;9.27;;;2.70;99.90;;;;;;4946691;28;20434;-68
2023/01/17 07:45:54;;;;;;;14.75;9.35;;;2.70;99.90;;;;;;4950111;28;20478;-67
2023/01/17 07:48:23;;;;;;;13.35;9.45;;;2.70;99.90;;;;;;4947132;28;20474;-68
2023/01/17 07:50:54;;;;;;;12.27;10.27;;;2.70;99.90;;;;;;4953824;28;20083;-67
2023/01/17 07:53:26;;;;;;;16.48;9.95;;;2.70;99.90;;;;;;4948834;28;20459;-67
2023/01/17 07:55:53;;;;;;;11.05;8.80;;;2.70;99.90;;;;;;4950777;28;20706;-65
2023/01/17 07:58:20;;;;;;;13.25;8.75;;;2.70;99.90;;;;;;4950962;28;20362;-64
2023/01/17 08:00:47;;;;;;;16.77;8.98;;;2.70;99.90;;;;;;4951437;28;20074;-67
2023/01/17 08:03:16;;;;;;;14.15;10.05;;;2.70;99.90;;;;;;4952204;28;20066;-66
2023/01/17 08:05:52;;;;;;;11.98;9.23;;;2.70;99.90;;;;;;4951370;28;20047;-66
2023/01/17 08:08:19;;;;;;;13.93;10.73;;;2.70;99.90;;;;;;4956973;28;20858;-65
2023/01/17 08:10:46;;;;;;;10.10;8.80;;;2.70;99.90;;;;;;4957146;28;20047;-65
2023/01/17 08:13:13;;;;;;;11.55;9.00;;;2.80;99.90;;;;;;4955245;28;20046;-64
2023/01/17 08:15:40;;;;;;;12.73;9.25;;;2.70;99.90;;;;;;4952685;28;20054;-63
2023/01/17 08:18:06;;;;;;;13.68;9.85;;;2.80;99.90;;;;;;4952925;28;20390;-64
2023/01/17 08:20:33;;;;;;;16.05;10.25;;;2.80;99.90;;;;;;4951224;28;20085;-65
2023/01/17 08:23:00;;;;;;;11.63;8.30;;;2.70;99.90;;;;;;4953242;28;20093;-68
2023/01/17 08:25:27;;;;;;;16.83;10.05;;;2.70;99.90;;;;;;4954825;28;20480;-67
2023/01/17 08:27:57;;;;;;;13.52;10.10;;;2.80;99.90;;;;;;4953755;28;20414;-64
2023/01/17 08:30:25;;;;;;;12.07;9.93;;;2.80;99.90;;;;;;4949790;28;20089;-64
2023/01/17 08:32:52;;;;;;;14.63;11.25;;;2.80;99.90;;;;;;4949582;28;20047;-64
2023/01/17 08:35:19;;;;;;;15.90;10.32;;;2.70;99.90;;;;;;4951839;28;20133;-64
2023/01/17 08:37:51;;;;;;;16.42;11.93;;;2.70;99.90;;;;;;4954647;28;20047;-65
2023/01/17 08:40:19;;;;;;;13.10;10.85;;;2.70;99.90;;;;;;4947309;28;20051;-68
2023/01/17 08:42:56;;;;;;;11.68;9.75;;;2.70;99.90;;;;;;4953452;28;20102;-68
2023/01/17 08:45:24;;;;;;;10.50;9.10;;;2.70;99.90;;;;;;4952806;28;20087;-65
2023/01/17 08:47:51;;;;;;;14.40;9.48;;;2.70;99.90;;;;;;4948434;28;20071;-68
2023/01/17 08:50:21;;;;;;;11.02;9.25;;;2.60;99.90;;;;;;4954361;28;20165;-64
2023/01/17 08:52:48;;;;;;;11.45;9.40;;;2.60;99.90;;;;;;4949024;28;20118;-65
2023/01/17 08:55:15;;;;;;;12.65;9.88;;;2.70;99.90;;;;;;4953344;28;20069;-66
2023/01/17 08:57:42;;;;;;;10.80;7.82;;;2.70;99.90;;;;;;4947812;28;20439;-67
2023/01/17 09:00:10;;;;;;;12.40;8.73;;;2.60;99.90;;;;;;4954883;28;20054;-69
2023/01/17 09:02:37;;;;;;;15.60;8.20;;;2.60;99.90;;;;;;4956091;28;20051;-65
2023/01/17 09:05:04;;;;;;;10.02;7.70;;;2.60;99.90;;;;;;4953491;28;20047;-66
2023/01/17 09:07:31;;;;;;;10.82;7.82;;;2.60;99.90;;;;;;4951515;28;20065;-67
2023/01/17 09:09:58;;;;;;;9.68;8.48;;;2.60;99.90;;;;;;4954851;28;20386;-67
2023/01/17 09:12:25;;;;;;;8.88;7.22;;;2.60;99.90;;;;;;4955500;28;20047;-65
2023/01/17 09:14:52;;;;;;;10.80;8.60;;;2.60;99.90;;;;;;4958967;28;20043;-66
2023/01/17 09:17:19;;;;;;;11.52;8.73;;;2.60;99.90;;;;;;4952265;28;20138;-64
2023/01/17 09:19:47;;;;;;;9.35;6.65;;;2.60;99.90;;;;;;4953119;28;20050;-66
2023/01/17 09:22:14;;;;;;;9.90;7.32;;;2.60;99.90;;;;;;4951411;28;20053;-66
2023/01/17 09:24:41;;;;;;;10.27;6.82;;;2.60;99.90;;;;;;4970896;28;20055;-68
2023/01/17 09:27:08;;;;;;;11.60;6.35;;;2.60;99.90;;;;;;4948962;28;20051;-65
2023/01/17 09:29:35;;;;;;;8.57;5.35;;;2.70;99.90;;;;;;4951623;28;20059;-70
2023/01/17 09:32:02;;;;;;;7.43;5.15;;;2.60;99.90;;;;;;4947494;28;20059;-65
2023/01/17 09:34:29;;;;;;;4.60;3.78;;;2.60;99.90;;;;;;4956303;28;20161;-69
2023/01/17 09:36:56;;;;;;;3.55;3.25;;;2.60;99.90;;;;;;4955823;28;20051;-65
2023/01/17 09:39:23;;;;;;;5.45;3.33;;;2.60;99.90;;;;;;4953220;28;20564;-67
2023/01/17 09:42:08;;;;;;;4.20;3.00;;;2.60;99.90;;;;;;4957188;28;20089;-65
2023/01/17 09:44:46;;;;;;;4.43;1.83;;;2.50;99.90;;;;;;4954567;28;20206;-66
2023/01/17 09:47:28;;;;;;;4.25;2.22;;;2.50;99.90;;;;;;4940925;28;20078;-64
2023/01/17 09:49:59;;;;;;;2.95;2.33;;;2.40;99.90;;;;;;4957670;28;20077;-65
2023/01/17 09:52:28;;;;;;;2.90;1.85;;;2.40;99.90;;;;;;4945688;28;20098;-65
2023/01/17 09:54:55;;;;;;;6.95;2.55;;;2.40;99.90;;;;;;4956596;28;20129;-66
2023/01/17 09:57:42;;;;;;;3.25;2.40;;;2.40;99.90;;;;;;4953647;28;20049;-66
2023/01/17 10:00:49;;;;;;;7.07;2.40;;;2.40;99.90;;;;;;4949106;28;20075;-65
2023/01/17 10:03:40;;;;;;;3.10;2.08;;;2.40;99.90;;;;;;4948137;28;20065;-67
2023/01/17 10:06:14;;;;;;;5.20;3.08;;;2.40;99.90;;;;;;4945658;28;20061;-67
2023/01/17 10:08:44;;;;;;;2.95;1.85;;;2.30;99.90;;;;;;4946130;28;20050;-65
2023/01/17 10:11:26;;;;;;;3.60;1.80;;;2.40;99.90;;;;;;4946678;28;20051;-67
2023/01/17 10:14:17;;;;;;;2.08;1.42;;;2.40;99.90;;;;;;4952437;28;20051;-66
2023/01/17 10:17:01;;;;;;;2.13;1.40;;;2.40;99.90;;;;;;4955764;28;20073;-65
2023/01/17 10:19:28;;;;;;;4.00;2.63;;;2.40;99.90;;;;;;4954489;28;20077;-67
2023/01/17 10:22:20;;;;;;;1.70;1.60;;;2.40;99.90;;;;;;4952540;28;20051;-66
2023/01/17 10:25:05;;;;;;;3.20;2.03;;;2.40;99.90;;;;;;4942248;28;20051;-70
2023/01/17 10:27:57;;;;;;;1.80;1.20;;;2.50;99.90;;;;;;4946745;28;20078;-66
2023/01/17 10:30:36;;;;;;;2.88;1.55;;;2.50;99.90;;;;;;4949445;28;20063;-65
2023/01/17 10:33:20;;;;;;;3.92;1.33;;;2.60;99.90;;;;;;4948274;28;20138;-65
2023/01/17 10:36:04;;;;;;;4.80;2.13;;;2.60;99.90;;;;;;4948188;28;20140;-68
2023/01/17 10:38:37;;;;;;;2.78;1.88;;;2.60;99.90;;;;;;4946697;28;20051;-66
2023/01/17 10:41:36;;;;;;;4.05;1.92;;;2.60;99.90;;;;;;4953537;28;20055;-66
2023/01/17 10:44:18;;;;;;;2.20;1.63;;;2.60;99.90;;;;;;4948808;28;20058;-66
2023/01/17 10:46:59;;;;;;;2.20;2.00;;;2.60;99.90;;;;;;4951948;28;20139;-63
2023/01/17 10:49:27;;;;;;;4.93;1.70;;;2.60;99.90;;;;;;4946647;28;20114;-71
2023/01/17 10:52:18;;;;;;;2.17;1.77;;;2.60;99.90;;;;;;4944707;28;20058;-67
2023/01/17 10:54:49;;;;;;;4.10;2.03;;;2.60;99.90;;;;;;4943659;28;20110;-65
2023/01/17 10:57:22;;;;;;;2.50;1.85;;;2.70;99.90;;;;;;4947204;28;20078;-65
2023/01/17 10:59:51;;;;;;;3.63;1.63;;;2.70;99.90;;;;;;4950962;28;20053;-66
2023/01/17 11:02:25;;;;;;;4.63;2.03;;;2.70;99.90;;;;;;4950882;28;20061;-66
2023/01/17 11:04:55;;;;;;;2.10;1.83;;;2.70;99.90;;;;;;4951901;28;20134;-69
2023/01/17 11:07:23;;;;;;;3.75;1.67;;;2.80;99.90;;;;;;4942492;28;20108;-67
2023/01/17 11:09:53;;;;;;;3.55;1.65;;;2.90;99.90;;;;;;4941066;28;20153;-66
2023/01/17 11:12:28;;;;;;;1.60;1.40;;;2.90;99.90;;;;;;4944706;28;20514;-69
2023/01/17 11:15:16;;;;;;;4.85;1.80;;;2.90;99.90;;;;;;4948246;28;20300;-66
2023/01/17 11:17:51;;;;;;;2.63;1.80;;;2.80;99.90;;;;;;4944040;28;20482;-70
2023/01/17 11:20:31;;;;;;;4.13;1.90;;;2.90;99.90;;;;;;4949139;28;20091;-66
2023/01/17 11:23:22;;;;;;;4.47;1.75;;;2.80;99.90;;;;;;4944561;28;20162;-67
2023/01/17 11:25:50;;;;;;;;;;;2.80;99.90;;;;;;4947507;28;20101;-70
2023/01/17 11:28:25;;;;;;;2.30;1.58;;;2.80;99.90;;;;;;4942337;28;19927;-66
2023/01/17 11:31:00;;;;;;;3.22;2.22;;;2.80;99.90;;;;;;4946894;28;20359;-69
2023/01/17 11:33:55;;;;;;;1.83;1.70;;;2.80;99.90;;;;;;4943690;28;20066;-66
2023/01/17 11:36:23;;;;;;;1.90;1.58;;;2.80;99.90;;;;;;4941111;28;20075;-72
2023/01/17 11:39:03;;;;;;;2.92;1.70;;;2.80;99.90;;;;;;4950784;28;20051;-66
2023/01/17 11:41:35;;;;;;;3.55;1.75;;;2.80;99.90;;;;;;4944371;28;20150;-66
2023/01/17 11:44:23;;;;;;;1.77;1.35;;;2.80;99.90;;;;;;4944504;28;20063;-68
2023/01/17 11:47:18;;;;;;;3.63;1.67;;;2.80;99.90;;;;;;4935729;28;20047;-65
2023/01/17 11:49:48;;;;;;;3.28;1.50;;;2.80;99.90;;;;;;4945796;28;20068;-65
2023/01/17 11:52:26;;;;;;;2.15;1.40;;;2.80;99.90;;;;;;4951805;28;20362;-70
2023/01/17 11:54:54;;;;;;;2.00;1.50;;;2.80;99.90;;;;;;4944374;28;20047;-71
2023/01/17 11:57:28;;;;;;;3.10;2.40;;;2.80;99.90;;;;;;4948148;28;20051;-67
2023/01/17 12:00:25;;;;;;;2.20;1.85;;;2.80;99.90;;;;;;4942739;28;20046;-66
2023/01/17 12:03:09;;;;;;;4.68;2.80;;;2.80;99.90;;;;;;4952729;28;20047;-69
2023/01/17 12:05:52;;;;;;;1.85;1.60;;;2.80;99.90;;;;;;4950713;28;20130;-64
2023/01/17 12:08:34;;;;;;;3.58;1.80;;;2.80;99.90;;;;;;4949453;28;20047;-67
2023/01/17 12:11:30;;;;;;;2.78;1.83;;;2.90;99.90;;;;;;4951908;28;20047;-65
2023/01/17 12:14:27;;;;;;;3.03;1.80;;;2.80;99.90;;;;;;4944748;28;20149;-66
2023/01/17 12:17:18;;;;;;;2.70;2.05;;;2.90;99.90;;;;;;4951913;28;20051;-65
2023/01/17 12:19:59;;;;;;;4.07;2.03;;;2.90;99.90;;;;;;4942934;28;20131;-65
2023/01/17 12:22:58;;;;;;;2.83;2.38;;;2.90;99.90;;;;;;4945129;28;20326;-65
2023/01/17 12:25:54;;;;;;;2.67;1.80;;;2.90;99.90;;;;;;4948557;28;20043;-67
2023/01/17 12:28:56;;;;;;;6.05;1.60;;;3.00;99.90;;;;;;4945246;28;20051;-65
2023/01/17 12:31:35;;;;;;;4.80;2.10;;;3.00;99.90;;;;;;4947581;28;20052;-65
2023/01/17 12:34:26;;;;;;;1.83;1.55;;;3.00;99.90;;;;;;4946336;28;20739;-67
2023/01/17 12:36:53;;;;;;;1.33;1.20;;;3.00;99.90;;;;;;4951477;28;20051;-65
2023/01/17 12:39:25;;;;;;;1.67;1.55;;;3.00;99.90;;;;;;4946675;28;20494;-70
2023/01/17 12:41:59;;;;;;;3.10;2.05;;;3.00;99.90;;;;;;4948624;28;20054;-66
2023/01/17 12:44:45;;;;;;;4.32;2.25;;;3.00;99.90;;;;;;4952699;28;20073;-66
2023/01/17 12:47:13;;;;;;;2.45;2.03;;;3.00;99.90;;;;;;4949576;28;20058;-64
2023/01/17 12:49:52;;;;;;;3.65;1.75;;;3.00;99.90;;;;;;4944963;28;20053;-64
2023/01/17 12:52:41;;;;;;;3.63;2.70;;;3.00;99.90;;;;;;4950666;28;20125;-67
2023/01/17 12:55:30;;;;;;;4.38;3.03;;;3.00;99.90;;;;;;4946980;28;20047;-66
2023/01/17 12:58:00;;;;;;;2.22;2.03;;;3.10;99.90;;;;;;4951081;28;20122;-65
2023/01/17 13:00:29;;;;;;;3.97;2.33;;;3.10;99.90;;;;;;4951732;28;20114;-68
2023/01/17 13:03:40;;;;;;;5.80;3.03;;;3.10;99.90;;;;;;4952049;28;20194;-66
2023/01/17 13:06:18;;;;;;;3.03;2.25;;;3.10;99.90;;;;;;4956511;28;20043;-67
2023/01/17 13:08:49;;;;;;;3.85;1.95;;;3.10;99.90;;;;;;4951305;28;20075;-69
2023/01/17 13:11:26;;;;;;;3.88;2.33;;;3.10;99.90;;;;;;4958933;28;20051;-66
2023/01/17 13:13:56;;;;;;;3.00;2.47;;;3.10;99.90;;;;;;4951818;28;20074;-67
2023/01/17 13:16:37;;;;;;;2.78;2.58;;;3.10;99.90;;;;;;4951742;28;20086;-65
2023/01/17 13:19:33;;;;;;;3.55;3.25;;;3.10;99.90;;;;;;4945332;28;20047;-63
2023/01/17 13:22:05;;;;;;;4.32;2.90;;;3.20;99.90;;;;;;4949027;28;20047;-64
2023/01/17 13:24:41;;;;;;;4.65;3.03;;;3.20;99.90;;;;;;4952361;28;20532;-63
2023/01/17 13:27:19;;;;;;;5.40;3.53;;;3.20;99.90;;;;;;4949675;28;20234;-66
2023/01/17 13:30:11;;;;;;;5.80;3.67;;;3.20;99.90;;;;;;4946520;28;20129;-64
2023/01/17 13:33:10;;;;;;;4.85;4.35;;;3.20;99.90;;;;;;4951530;28;20061;-63
2023/01/17 13:35:53;;;;;;;5.50;4.07;;;3.20;99.90;;;;;;4944722;28;20474;-69
2023/01/17 13:38:43;;;;;;;6.95;5.15;;;3.20;99.90;;;;;;4949250;28;20065;-65
2023/01/17 13:41:15;;;;;;;5.55;4.65;;;3.20;99.90;;;;;;4953921;28;20339;-64
2023/01/17 13:44:20;;;;;;;5.10;4.60;;;3.30;99.90;;;;;;4955350;28;20122;-64
2023/01/17 13:46:51;;;;;;;7.15;5.90;;;3.20;99.90;;;;;;4955725;28;20052;-64
2023/01/17 13:49:50;;;;;;;11.25;6.47;;;3.30;99.90;;;;;;4951556;28;20101;-64
2023/01/17 13:52:19;;;;;;;9.75;6.10;;;3.30;99.90;;;;;;4951399;28;20106;-66
2023/01/17 13:54:59;;;;;;;9.27;7.28;;;3.30;99.90;;;;;;4951006;28;20366;-66
2023/01/17 13:57:31;;;;;;;8.05;5.90;;;3.40;99.90;;;;;;4950502;28;20050;-65
2023/01/17 14:00:21;;;;;;;10.35;6.82;;;3.30;99.90;;;;;;4950868;28;20047;-66
2023/01/17 14:02:49;;;;;;;10.85;7.45;;;3.40;99.90;;;;;;4947819;28;20051;-63
2023/01/17 14:05:29;;;;;;;9.20;8.00;;;3.30;99.90;;;;;;4950271;28;20074;-67
2023/01/17 14:08:03;;;;;;;9.18;7.78;;;3.40;99.90;;;;;;4949208;28;20056;-65
2023/01/17 14:10:45;;;;;;;8.18;6.05;;;3.40;99.90;;;;;;4953656;28;20403;-64
2023/01/17 14:13:30;;;;;;;9.00;7.15;;;3.40;99.90;;;;;;4952302;28;20490;-65
2023/01/17 14:15:57;;;;;;;8.85;7.75;;;3.40;99.90;;;;;;4948247;28;20054;-65
2023/01/17 14:18:33;;;;;;;8.35;7.03;;;3.40;99.90;;;;;;4948122;28;20441;-64
2023/01/17 14:21:25;;;;;;;7.25;6.38;;;3.40;99.90;;;;;;4950179;28;20046;-64
2023/01/17 14:23:58;;;;;;;7.85;6.53;;;3.40;99.90;;;;;;4946631;28;20560;-69
2023/01/17 14:26:57;;;;;;;10.00;6.57;;;3.40;99.90;;;;;;4954951;28;20070;-66
2023/01/17 14:29:48;;;;;;;8.80;7.80;;;3.50;99.90;;;;;;4949193;28;20338;-63
2023/01/17 14:32:28;;;;;;;11.05;7.55;;;3.50;99.90;;;;;;4943681;28;20278;-66
2023/01/17 14:34:56;;;;;;;10.73;7.97;;;3.50;99.90;;;;;;4953046;28;20136;-66
2023/01/17 14:37:31;;;;;;;10.32;8.15;;;3.50;99.90;;;;;;4949562;28;20082;-64
2023/01/17 14:39:59;;;;;;;11.48;9.35;;;3.50;99.90;;;;;;4959965;28;20413;-68